Time;durP1;ratioP1;P1;durP2;ratioP2;P2;SDS_P1;SDS_P2;PMS_P1;PMS_P2;Temp;Humidity;BMP_temperature;BMP_pressure;BME280_temperature;BME280_humidity;BME280_pressure;Samples;Min_cycle;Max_cycle;Signal;HPM_P1;HPM_P2
2021/12/05 00:22:12;;;;;;;27.30;13.57;;;;;;;-144.19;93.97;76280.03;5096217;28;20055;-89
2021/12/05 00:24:44;;;;;;;28.75;15.15;;;;;;;-144.19;95.07;76285.94;5077576;28;20054;-89
2021/12/05 00:27:18;;;;;;;26.23;13.70;;;;;;;-144.19;94.36;76293.81;5077812;28;20254;-90
2021/12/05 00:41:26;;;;;;;30.45;15.35;;;;;;;-144.19;94.27;76299.72;5095852;28;20056;-89
2021/12/05 00:44:49;;;;;;;31.77;15.95;;;;;;;-144.19;94.51;76311.53;5095690;28;20048;-89
2021/12/05 00:49:50;;;;;;;27.67;16.00;;;;;;;-144.19;94.05;76317.44;5095250;28;20055;-88
2021/12/05 00:58:17;;;;;;;38.45;18.80;;;;;;;-144.19;94.63;76315.47;5094413;28;20439;-89
2021/12/05 01:01:02;;;;;;;33.78;16.50;;;;;;;-144.19;94.14;76305.63;5094809;28;20048;-88
2021/12/05 01:04:04;;;;;;;29.90;15.43;;;;;;;-144.19;93.29;76299.72;5095324;28;20417;-89
2021/12/05 01:14:22;;;;;;;33.20;18.77;;;;;;;-144.19;94.32;76307.59;5094241;28;20050;-89
2021/12/05 01:16:49;;;;;;;36.58;21.38;;;;;;;-144.19;94.63;76315.47;5076853;28;20094;-89
2021/12/05 01:19:18;;;;;;;38.58;21.27;;;;;;;-144.19;94.84;76325.31;5076429;28;20146;-87
2021/12/05 01:21:50;;;;;;;40.15;23.83;;;;;;;-144.19;94.75;76331.22;5076497;28;20074;-89
2021/12/05 01:24:37;;;;;;;37.20;20.17;;;;;;;-144.19;95.16;76341.06;5076343;28;20056;-88
2021/12/05 01:27:23;;;;;;;38.78;22.05;;;;;;;-144.19;95.66;76346.94;5076640;28;20053;-87
2021/12/05 01:29:57;;;;;;;40.28;19.42;;;;;;;-144.19;95.79;76358.75;5075570;28;20052;-88
2021/12/05 01:37:37;;;;;;;35.08;20.05;;;;;;;-144.19;95.75;76370.56;5089628;28;20124;-89
2021/12/05 01:40:28;;;;;;;38.00;21.75;;;;;;;-144.19;95.48;76346.94;5086280;28;20516;-88
2021/12/05 01:49:02;;;;;;;40.33;22.75;;;;;;;-144.19;95.32;76354.81;5079128;28;20426;-87
2021/12/05 02:08:19;;;;;;;33.67;19.75;;;;;;;-144.19;94.67;76358.75;5093646;28;20409;-89
2021/12/05 02:11:06;;;;;;;35.10;19.50;;;;;;;-144.19;94.27;76360.72;5062416;28;20051;-88
2021/12/05 02:16:43;;;;;;;41.70;22.55;;;;;;;-144.19;94.46;76368.59;5056958;28;20475;-88
2021/12/05 02:35:25;;;;;;;38.78;19.52;;;;;;;-144.19;92.94;76358.75;5085269;28;20056;-89
2021/12/05 02:38:13;;;;;;;34.70;18.08;;;;;;;-144.19;94.00;76394.19;5075882;28;20044;-89
2021/12/05 02:41:03;;;;;;;34.13;16.63;;;;;;;-144.19;94.19;76394.19;5076308;28;20430;-89
2021/12/05 02:43:33;;;;;;;36.00;18.30;;;;;;;-144.19;93.26;76382.38;5075673;28;20070;-88
2021/12/05 02:46:03;;;;;;;25.60;12.68;;;;;;;-144.19;93.32;76398.13;5093145;28;20077;-90
2021/12/05 02:48:32;;;;;;;35.22;16.15;;;;;;;-144.19;93.16;76400.09;5075247;28;20493;-87
2021/12/05 02:51:02;;;;;;;43.25;17.40;;;;;;;-144.19;93.06;76396.16;5074684;28;20135;-88
2021/12/05 02:53:38;;;;;;;26.90;14.48;;;;;;;-144.19;94.17;76415.84;5075464;28;20425;-88
2021/12/05 02:56:05;;;;;;;22.88;12.27;;;;;;;-144.19;94.53;76415.84;5075480;28;20047;-91
2021/12/05 03:01:24;;;;;;;24.77;11.73;;;;;;;-144.19;94.58;76406.00;5098777;28;20084;-88
2021/12/05 03:03:53;;;;;;;17.33;8.63;;;;;;;-144.19;95.08;76421.75;5081307;28;20059;-89
2021/12/05 03:06:24;;;;;;;24.48;10.32;;;;;;;-144.19;95.50;76429.63;5080238;28;20052;-88
2021/12/05 03:08:57;;;;;;;31.73;14.70;;;;;;;-144.19;95.77;76413.88;5080579;28;20048;-89
2021/12/05 03:11:26;;;;;;;21.60;11.75;;;;;;;-144.19;95.09;76425.69;5081758;28;20044;-88
2021/12/05 03:13:52;;;;;;;24.95;11.35;;;;;;;-144.19;94.82;76421.75;5081313;28;20067;-88
2021/12/05 03:16:24;;;;;;;24.70;11.10;;;;;;;-144.19;94.32;76413.88;5080163;28;20099;-89
2021/12/05 03:18:52;;;;;;;24.73;12.88;;;;;;;-144.19;94.40;76421.75;5081068;28;20059;-87
2021/12/05 03:21:19;;;;;;;25.08;10.18;;;;;;;-144.19;94.71;76425.69;5080450;28;20412;-89
2021/12/05 03:23:48;;;;;;;;;;;;;;;-144.19;95.18;76443.41;5079724;28;20047;-88
2021/12/05 03:26:17;;;;;;;;;;;;;;;-144.19;95.17;76457.19;5079749;28;19927;-86
2021/12/05 03:28:44;;;;;;;19.48;8.27;;;;;;;-144.19;95.43;76447.34;5079777;28;19920;-89
2021/12/05 03:31:12;;;;;;;;;;;;;;;-144.19;94.59;76443.41;5080959;28;20048;-88
2021/12/05 03:33:39;;;;;;;21.45;9.45;;;;;;;-144.19;94.26;76465.06;5080409;28;20026;-90
2021/12/05 03:36:09;;;;;;;20.42;9.15;;;;;;;-144.19;94.35;76453.25;5079254;28;20055;-89
2021/12/05 03:38:38;;;;;;;26.50;11.98;;;;;;;-144.19;94.50;76449.31;5079626;28;20070;-92
2021/12/05 03:41:05;;;;;;;25.65;9.05;;;;;;;-144.19;94.23;76461.13;5079506;28;20131;-86
2021/12/05 03:43:32;;;;;;;27.95;13.65;;;;;;;-144.19;94.22;76472.94;5079410;28;20051;-89
2021/12/05 03:45:59;;;;;;;20.38;10.65;;;;;;;-144.19;94.81;76465.06;5097800;28;20048;-90
2021/12/05 03:48:30;;;;;;;21.77;9.85;;;;;;;-144.19;94.82;76469.00;5078932;28;20055;-90
2021/12/05 03:50:59;;;;;;;17.38;7.97;;;;;;;-144.19;94.74;76480.81;5060428;28;20048;-91
2021/12/05 03:53:26;;;;;;;26.00;8.57;;;;;;;-144.19;94.82;76474.91;5059310;28;20052;-89
2021/12/05 03:55:56;;;;;;;25.52;7.82;;;;;;;-144.19;94.79;76472.94;5075362;28;20048;-89
2021/12/05 03:58:23;;;;;;;17.45;7.93;;;;;;;-144.19;94.63;76484.75;5079607;28;20075;-91
2021/12/05 04:00:54;;;;;;;20.08;7.60;;;;;;;-144.19;95.24;76502.44;5079477;28;20052;-89
2021/12/05 04:03:26;;;;;;;12.85;5.30;;;;;;;-144.19;95.80;76506.38;5078710;28;20078;-87
2021/12/05 04:05:55;;;;;;;15.80;6.40;;;;;;;-144.19;95.90;76488.69;5078528;28;20056;-90
2021/12/05 04:08:25;;;;;;;19.88;6.18;;;;;;;-144.19;95.63;76512.28;5078067;28;20135;-89
2021/12/05 04:10:58;;;;;;;15.18;6.55;;;;;;;-144.19;96.34;76512.28;5077327;28;20070;-92
2021/12/05 04:13:26;;;;;;;13.00;5.47;;;;;;;-144.19;96.08;76514.25;5066704;28;20052;-89
2021/12/05 04:15:55;;;;;;;19.20;6.82;;;;;;;-144.19;96.03;76508.34;5057579;28;20052;-87
2021/12/05 04:18:22;;;;;;;20.65;6.68;;;;;;;-144.19;95.92;76510.31;5058278;28;20121;-90
2021/12/05 04:20:49;;;;;;;19.73;6.63;;;;;;;-144.19;96.15;76516.22;5057476;28;20425;-90
2021/12/05 04:23:16;;;;;;;17.08;7.53;;;;;;;-144.19;95.92;76504.41;5059369;28;20070;-89
2021/12/05 04:25:48;;;;;;;17.90;7.03;;;;;;;-144.19;95.58;76500.47;5078165;28;20044;-90
2021/12/05 04:28:15;;;;;;;19.25;6.28;;;;;;;-144.19;95.55;76504.41;5077933;28;20046;-90
2021/12/05 04:30:44;;;;;;;23.00;8.60;;;;;;;-144.19;95.63;76502.44;5063855;28;20049;-89
2021/12/05 04:33:11;;;;;;;16.92;8.65;;;;;;;-144.19;95.63;76510.31;5057861;28;20079;-90
2021/12/05 04:35:40;;;;;;;19.67;7.65;;;;;;;-144.19;95.97;76506.38;5058852;28;20059;-90
2021/12/05 04:38:07;;;;;;;18.45;7.72;;;;;;;-144.19;96.08;76504.41;5075314;28;20094;-89
2021/12/05 04:40:34;;;;;;;13.83;6.53;;;;;;;-144.19;95.19;76506.38;5057873;28;20049;-88
2021/12/05 04:43:01;;;;;;;16.90;7.80;;;;;;;-144.19;95.50;76506.38;5057251;28;20600;-88
2021/12/05 04:45:30;;;;;;;14.82;7.13;;;;;;;-144.19;95.71;76512.28;5057490;28;20048;-87
2021/12/05 04:47:58;;;;;;;24.92;7.75;;;;;;;-144.19;95.57;76500.47;5056146;28;20044;-87
2021/12/05 04:50:25;;;;;;;22.65;8.50;;;;;;;-144.19;95.91;76512.28;5055850;28;20064;-87
2021/12/05 04:52:52;;;;;;;;;;;;;;;-144.19;95.84;76520.16;5056292;28;20395;-88
2021/12/05 04:55:20;;;;;;;21.17;8.80;;;;;;;-144.19;96.27;76520.16;5067130;28;19920;-88
2021/12/05 04:57:48;;;;;;;27.63;9.88;;;;;;;-144.19;95.15;76514.25;5093679;28;20063;-88
2021/12/05 05:00:21;;;;;;;24.05;10.25;;;;;;;-144.19;95.04;76504.41;5075526;28;20082;-85
2021/12/05 05:02:47;;;;;;;25.58;12.23;;;;;;;-144.19;94.84;76514.25;5075235;28;20055;-89
2021/12/05 05:05:14;;;;;;;23.00;12.80;;;;;;;-144.19;94.87;76508.34;5093530;28;20062;-87
2021/12/05 05:07:43;;;;;;;22.52;10.80;;;;;;;-144.19;94.71;76516.22;5074779;28;20055;-88
2021/12/05 05:10:20;;;;;;;25.88;11.95;;;;;;;-144.19;94.10;76514.25;5093202;28;20457;-87
2021/12/05 05:12:48;;;;;;;25.88;12.52;;;;;;;-144.19;93.60;76516.22;5092939;28;20059;-87
2021/12/05 05:15:20;;;;;;;26.00;12.77;;;;;;;-144.19;94.08;76524.09;5074969;28;20062;-87
2021/12/05 05:17:49;;;;;;;26.15;13.50;;;;;;;-144.19;94.11;76520.16;5092762;28;20519;-87
2021/12/05 05:20:24;;;;;;;27.25;12.88;;;;;;;-144.19;93.90;76504.41;5075324;28;20062;-88
2021/12/05 05:23:21;;;;;;;36.00;14.88;;;;;;;-144.19;93.41;76496.53;5075148;28;20055;-88
2021/12/05 05:40:24;;;;;;;23.25;13.07;;;;;;;-144.19;93.29;76531.97;5099459;28;20062;-88
2021/12/05 05:48:32;;;;;;;24.98;12.57;;;;;;;-144.19;93.18;76531.97;5093695;28;20164;-89
2021/12/05 05:51:01;;;;;;;31.25;12.43;;;;;;;-144.19;93.16;76531.97;5076071;28;20412;-89
2021/12/05 05:53:28;;;;;;;27.80;11.93;;;;;;;-144.19;92.71;76533.94;5076218;28;20051;-90
2021/12/05 05:55:55;;;;;;;27.02;12.25;;;;;;;-144.19;92.32;76530.00;5075475;28;20142;-87
2021/12/05 05:58:37;;;;;;;24.30;11.43;;;;;;;-144.19;92.30;76524.09;5075033;28;20134;-91
2021/12/05 06:01:08;;;;;;;19.73;10.60;;;;;;;-144.19;92.20;76543.78;5075741;28;20048;-89
2021/12/05 06:03:34;;;;;;;27.10;13.07;;;;;;;-144.19;92.55;76541.81;5075624;28;20417;-88
2021/12/05 06:06:06;;;;;;;21.42;11.95;;;;;;;-144.19;92.07;76535.91;5075525;28;20225;-90
2021/12/05 06:08:35;;;;;;;23.52;11.35;;;;;;;-144.19;92.71;76547.72;5075189;28;20131;-90
2021/12/05 06:11:05;;;;;;;21.63;11.13;;;;;;;-144.19;92.85;76530.00;5075010;28;20058;-89
2021/12/05 06:13:33;;;;;;;28.27;13.52;;;;;;;-144.19;92.58;76545.75;5075219;28;20052;-89
2021/12/05 06:15:59;;;;;;;20.98;12.02;;;;;;;-144.19;92.08;76535.91;5076838;28;20445;-90
2021/12/05 06:18:26;;;;;;;25.48;13.20;;;;;;;-144.19;92.15;76539.84;5075777;28;20058;-87
2021/12/05 06:20:54;;;;;;;;;;;;;;;-144.19;92.17;76547.72;5075703;28;20121;-89
2021/12/05 06:23:21;;;;;;;24.33;12.52;;;;;;;-144.19;92.64;76551.66;5074764;28;20394;-88
2021/12/05 06:25:50;;;;;;;23.10;14.30;;;;;;;-144.19;92.69;76551.66;5074615;28;20048;-88
2021/12/05 06:28:24;;;;;;;25.65;12.30;;;;;;;-144.19;92.75;76549.69;5074967;28;20069;-88
2021/12/05 06:31:11;;;;;;;24.42;12.98;;;;;;;-144.19;92.75;76565.44;5075088;28;20410;-86
2021/12/05 06:39:24;;;;;;;23.85;10.20;;;;;;;-144.19;92.07;76559.53;5052703;28;20545;-88
2021/12/05 06:47:41;;;;;;;26.33;15.23;;;;;;;-144.19;92.50;76563.47;5049402;28;20049;-87
2021/12/05 06:50:08;;;;;;;31.67;15.38;;;;;;;-144.19;92.29;76547.72;5056930;28;20058;-87
2021/12/05 06:52:42;;;;;;;25.92;10.77;;;;;;;-144.19;91.79;76571.34;5074100;28;20048;-87
2021/12/05 06:55:09;;;;;;;22.65;10.75;;;;;;;-144.19;92.18;76573.31;5091307;28;20270;-86
2021/12/05 06:57:36;;;;;;;22.42;11.52;;;;;;;-144.19;91.96;76563.47;5068458;28;20127;-87
2021/12/05 07:00:10;;;;;;;19.25;11.52;;;;;;;-144.19;92.20;76577.25;5073337;28;20052;-87
2021/12/05 07:02:37;;;;;;;18.40;10.30;;;;;;;-144.19;91.83;76587.09;5116738;22;20048;-87
2021/12/05 07:07:37;;;;;;;32.83;11.85;;;;;;;-144.19;91.98;76587.09;5112628;28;20047;-86
2021/12/05 07:10:06;;;;;;;28.23;13.52;;;;;;;-144.19;92.42;76579.22;5114710;28;20048;-85
2021/12/05 07:15:09;;;;;;;21.15;9.77;;;;;;;-144.19;91.89;76591.03;5115146;28;20491;-87
2021/12/05 07:20:23;;;;;;;20.95;9.80;;;;;;;-144.19;91.49;76602.84;5113071;28;20243;-86
2021/12/05 07:23:11;;;;;;;26.30;14.05;;;;;;;-144.19;91.05;76598.91;5105805;28;20043;-84
2021/12/05 07:25:47;;;;;;;25.02;13.07;;;;;;;-144.19;91.40;76604.81;5118703;28;20052;-87
2021/12/05 07:42:11;;;;;;;21.02;9.65;;;;;;;-144.19;90.06;76602.84;5094831;28;20058;-86
2021/12/05 07:44:38;;;;;;;24.33;13.05;;;;;;;-144.19;90.68;76616.63;5078117;28;20063;-85
2021/12/05 07:47:08;;;;;;;32.10;13.20;;;;;;;-144.19;91.13;76606.78;5080265;28;20086;-86
2021/12/05 07:49:34;;;;;;;34.17;14.05;;;;;;;-144.19;90.34;76606.78;5088426;28;20040;-86
2021/12/05 07:52:01;;;;;;;28.50;15.43;;;;;;;-144.19;90.81;76606.78;5092146;28;20048;-85
2021/12/05 07:57:20;;;;;;;26.38;12.32;;;;;;;-144.19;90.98;76608.75;5097774;28;20052;-85
2021/12/05 08:00:12;;;;;;;24.73;10.18;;;;;;;-144.19;90.72;76628.44;5097130;28;20040;-85
2021/12/05 08:16:17;;;;;;;18.02;7.47;;;;;;;-144.19;90.81;76638.28;5107465;27;20048;-88
2021/12/05 08:18:45;;;;;;;14.50;8.35;;;;;;;-144.19;90.23;76638.28;5086886;28;20128;-87
2021/12/05 08:21:12;;;;;;;24.17;9.05;;;;;;;-144.19;90.15;76620.56;5091267;28;20047;-86
2021/12/05 08:23:39;;;;;;;21.25;8.73;;;;;;;-144.19;90.29;76634.34;5117095;28;20086;-86
2021/12/05 08:26:18;;;;;;;15.10;6.63;;;;;;;-144.19;89.93;76642.22;5097634;28;20047;-87
2021/12/05 08:31:34;;;;;;;18.85;7.85;;;;;;;-144.19;90.52;76630.41;5112293;28;20536;-87
2021/12/05 08:37:28;;;;;;;14.13;6.28;;;;;;;-144.19;90.08;76638.28;5102501;28;20405;-85
2021/12/05 08:45:47;;;;;;;14.70;5.47;;;;;;;-144.19;88.94;76634.34;5107219;28;20052;-87
2021/12/05 09:24:35;;;;;;;12.05;6.60;;;;;;;-144.19;88.44;76661.91;5101683;28;20126;-89
2021/12/05 09:27:46;;;;;;;17.17;6.35;;;;;;;-144.19;87.85;76673.72;5097135;28;20130;-88
2021/12/05 09:38:37;;;;;;;11.30;5.40;;;;;;;-144.19;87.82;76675.69;5117606;28;20048;-85
2021/12/05 09:52:41;;;;;;;17.52;5.40;;;;;;;-144.19;85.81;76657.97;5109916;28;20073;-88
2021/12/05 10:09:16;;;;;;;16.08;5.90;;;;;;;-144.19;85.10;76642.22;5100590;28;20479;-88
2021/12/05 10:17:39;;;;;;;15.23;4.20;;;;;;;-144.19;83.92;76665.84;5094970;28;20047;-89
2021/12/05 10:34:38;;;;;;;10.25;3.80;;;;;;;-144.19;83.18;76622.53;5106115;28;20559;-88
2021/12/05 10:37:13;;;;;;;9.55;4.25;;;;;;;-144.19;81.90;76634.34;5114916;28;20043;-88
2021/12/05 10:39:40;;;;;;;13.15;5.28;;;;;;;-144.19;81.47;76642.22;5100789;28;20055;-87
2021/12/05 10:42:37;;;;;;;10.57;3.60;;;;;;;-144.19;80.03;76644.19;5083193;28;20047;-88
2021/12/05 10:45:27;;;;;;;10.68;4.88;;;;;;;-144.19;80.61;76630.41;5086199;28;20054;-89
2021/12/05 10:47:57;;;;;;;10.38;4.80;;;;;;;-144.19;80.99;76614.66;5086746;28;20505;-87
2021/12/05 10:50:28;;;;;;;8.90;4.75;;;;;;;-144.19;80.99;76614.66;5114904;28;20031;-85
2021/12/05 10:53:19;;;;;;;11.00;4.28;;;;;;;-144.19;82.03;76620.56;5103592;28;20056;-87
2021/12/05 10:55:45;;;;;;;12.90;4.22;;;;;;;-144.19;82.33;76614.66;5085519;28;20040;-87
2021/12/05 10:58:12;;;;;;;13.93;7.00;;;;;;;-144.19;80.87;76606.78;5087241;28;20056;-88
2021/12/05 11:00:38;;;;;;;16.53;6.93;;;;;;;-144.19;80.82;76606.78;5085252;28;20290;-88
2021/12/05 11:03:19;;;;;;;12.32;6.38;;;;;;;-144.19;80.62;76606.78;5086087;28;20060;-89
2021/12/05 11:05:46;;;;;;;10.35;5.00;;;;;;;-144.19;81.50;76620.56;5103445;28;20050;-87
2021/12/05 11:08:33;;;;;;;10.27;6.13;;;;;;;-144.19;80.10;76620.56;5103825;28;20428;-88
2021/12/05 11:11:12;;;;;;;15.02;4.90;;;;;;;-144.19;79.35;76612.69;5106230;28;20044;-88
2021/12/05 11:13:43;;;;;;;10.60;4.15;;;;;;;-144.19;79.38;76614.66;5083524;28;20039;-87
2021/12/05 11:16:34;;;;;;;10.82;4.30;;;;;;;-144.19;78.48;76614.66;5103154;28;20052;-88
2021/12/05 11:19:08;;;;;;;15.63;3.80;;;;;;;-144.19;77.79;76630.41;5086609;28;20396;-88
2021/12/05 11:21:38;;;;;;;13.15;4.18;;;;;;;-144.19;78.39;76614.66;5090621;28;20116;-88
2021/12/05 11:24:10;;;;;;;9.90;3.25;;;;;;;-144.19;78.25;76602.84;5107546;28;20400;-88
2021/12/05 11:26:40;;;;;;;9.13;3.05;;;;;;;-144.19;78.69;76589.06;5088284;28;20044;-85
2021/12/05 11:29:08;;;;;;;8.43;3.42;;;;;;;-144.19;76.85;76610.72;5106772;28;20405;-87
2021/12/05 11:31:36;;;;;;;7.75;3.33;;;;;;;-144.19;77.70;76596.94;5097294;28;20048;-89
2021/12/05 11:34:03;;;;;;;7.97;3.72;;;;;;;-144.19;79.08;76583.16;5110139;28;20048;-85
2021/12/05 11:36:36;;;;;;;9.25;3.20;;;;;;;-144.19;77.74;76583.16;5106687;28;20248;-86
2021/12/05 11:39:21;;;;;;;7.60;3.05;;;;;;;-144.19;76.92;76583.16;5088383;28;20051;-85
2021/12/05 11:41:48;;;;;;;12.60;2.67;;;;;;;-144.19;76.52;76594.97;5107936;28;20471;-88
2021/12/05 11:44:20;;;;;;;8.77;3.83;;;;;;;-144.19;76.04;76579.22;5087900;28;20052;-87
2021/12/05 11:46:47;;;;;;;8.80;4.15;;;;;;;-144.19;76.95;76594.97;5085979;28;20040;-86
2021/12/05 11:49:21;;;;;;;9.52;3.25;;;;;;;-144.19;75.98;76587.09;5105674;28;20457;-87
2021/12/05 11:51:56;;;;;;;11.20;3.70;;;;;;;-144.19;75.52;76589.06;5088623;28;20489;-86
2021/12/05 11:54:29;;;;;;;6.93;2.75;;;;;;;-144.19;74.69;76579.22;5088697;28;20048;-88
2021/12/05 11:57:22;;;;;;;5.53;2.20;;;;;;;-144.19;75.15;76579.22;5104877;28;20109;-88
2021/12/05 11:59:57;;;;;;;10.68;2.97;;;;;;;-144.19;76.25;76575.28;5105459;28;20071;-87
2021/12/05 12:02:37;;;;;;;7.85;2.83;;;;;;;-144.19;75.53;76567.41;5086994;28;20765;-87
2021/12/05 12:05:13;;;;;;;11.40;2.70;;;;;;;-144.19;74.12;76579.22;5098276;28;20054;-87
2021/12/05 12:08:07;;;;;;;8.55;2.15;;;;;;;-144.19;73.29;76591.03;5087443;28;20572;-87
2021/12/05 12:10:39;;;;;;;10.20;2.05;;;;;;;-144.19;74.51;76587.09;5109295;28;20118;-88
2021/12/05 12:13:15;;;;;;;6.20;2.60;;;;;;;-144.19;74.09;76589.06;5086276;28;20417;-87
2021/12/05 12:15:43;;;;;;;7.78;2.30;;;;;;;-144.19;73.42;76591.03;5105840;28;20059;-86
2021/12/05 12:18:26;;;;;;;6.43;2.30;;;;;;;-144.19;73.64;76594.97;5086247;28;20424;-87
2021/12/05 12:20:55;;;;;;;8.30;3.97;;;;;;;-144.19;73.20;76594.97;5087067;28;20040;-87
2021/12/05 12:23:23;;;;;;;7.68;2.92;;;;;;;-144.19;74.23;76573.31;5086869;28;20055;-87
2021/12/05 12:25:57;;;;;;;8.73;2.75;;;;;;;-144.19;74.38;76561.50;5087439;28;20063;-86
2021/12/05 12:28:24;;;;;;;6.43;2.38;;;;;;;-144.19;74.38;76559.53;5087938;28;20519;-88
2021/12/05 12:31:05;;;;;;;7.45;2.53;;;;;;;-144.19;72.36;76575.28;5104299;28;20050;-88
2021/12/05 12:33:39;;;;;;;7.10;2.15;;;;;;;-144.19;72.68;76585.13;5107424;28;20047;-87
2021/12/05 12:36:06;;;;;;;7.13;2.25;;;;;;;-144.19;73.46;76591.03;5104483;28;20057;-89
2021/12/05 12:38:36;;;;;;;9.48;1.95;;;;;;;-144.19;74.86;76567.41;5089777;28;20131;-88
2021/12/05 12:41:16;;;;;;;5.88;2.47;;;;;;;-144.19;71.25;76596.94;5087467;28;20044;-88
2021/12/05 12:44:01;;;;;;;8.07;2.90;;;;;;;-144.19;71.78;76583.16;5108067;28;20043;-86
2021/12/05 12:46:50;;;;;;;7.38;2.15;;;;;;;-144.19;72.71;76589.06;5107539;28;20498;-87
2021/12/05 12:49:16;;;;;;;8.85;2.28;;;;;;;-144.19;72.09;76596.94;5105146;28;20093;-87
2021/12/05 12:52:02;;;;;;;10.82;2.38;;;;;;;-144.19;72.20;76594.97;5087817;28;20057;-87
2021/12/05 12:54:53;;;;;;;12.32;2.92;;;;;;;-144.19;72.04;76610.72;5089975;28;20043;-88
2021/12/05 12:57:23;;;;;;;6.32;2.17;;;;;;;-144.19;71.37;76634.34;5088302;28;20532;-88
2021/12/05 13:00:02;;;;;;;7.85;2.58;;;;;;;-144.19;73.00;76618.59;5107417;28;20424;-86
2021/12/05 13:11:01;;;;;;;;;;;;;;;-144.19;71.68;76622.53;4975389;28;20419;-85
2021/12/05 13:13:29;;;;;;;6.65;2.90;;;;;;;-144.19;72.11;76634.34;4978047;28;19932;-87
2021/12/05 13:16:08;;;;;;;10.35;3.45;;;;;;;-144.19;70.96;76618.59;4984388;28;20504;-85
2021/12/05 13:18:36;;;;;;;9.95;3.70;;;;;;;-144.19;72.15;76622.53;4980549;28;20077;-88
2021/12/05 13:21:06;;;;;;;11.80;2.70;;;;;;;-144.19;71.63;76646.16;4978507;28;20051;-86
2021/12/05 13:24:14;;;;;;;6.78;2.13;;;;;;;-144.19;71.83;76646.16;4974656;28;20543;-84
2021/12/05 13:26:42;;;;;;;8.27;2.35;;;;;;;-144.19;72.60;76657.97;4993710;28;20061;-86
2021/12/05 13:29:18;;;;;;;8.82;2.50;;;;;;;-144.19;71.29;76642.22;4992506;28;20468;-85
2021/12/05 13:32:06;;;;;;;4.57;2.17;;;;;;;-144.19;72.40;76657.97;4992542;28;20054;-85
2021/12/05 13:34:41;;;;;;;9.85;2.38;;;;;;;-144.19;72.26;76654.03;4988744;28;20050;-88
2021/12/05 13:37:08;;;;;;;5.50;1.88;;;;;;;-144.19;72.28;76656.00;4971881;28;20133;-84
2021/12/05 13:39:54;;;;;;;6.15;2.13;;;;;;;-144.19;71.99;76659.94;4973573;28;20057;-87
2021/12/05 13:42:27;;;;;;;7.38;2.55;;;;;;;-144.19;72.68;76659.94;4982651;28;20050;-88
2021/12/05 13:45:04;;;;;;;8.48;2.28;;;;;;;-144.19;73.19;76659.94;4986149;28;20527;-85
2021/12/05 13:47:51;;;;;;;7.68;2.70;;;;;;;-144.19;72.49;76654.03;4981705;28;20065;-89
2021/12/05 13:50:18;;;;;;;9.27;2.90;;;;;;;-144.19;72.43;76665.84;4981437;28;20142;-88
2021/12/05 13:52:55;;;;;;;12.40;2.63;;;;;;;-144.19;72.70;76671.75;4985782;28;20057;-89
2021/12/05 13:55:40;;;;;;;7.43;2.65;;;;;;;-144.19;73.04;76656.00;4993958;28;20126;-88
2021/12/05 13:58:28;;;;;;;8.98;2.80;;;;;;;-144.19;72.97;76654.03;4999693;28;20042;-88
2021/12/05 14:00:59;;;;;;;8.93;3.20;;;;;;;-144.19;71.77;76661.91;4977241;28;20052;-87
2021/12/05 14:03:50;;;;;;;11.23;3.25;;;;;;;-144.19;71.68;76685.53;4999246;28;20053;-86
2021/12/05 14:06:29;;;;;;;9.75;3.00;;;;;;;-144.19;71.79;76669.78;5002544;28;20042;-89
2021/12/05 14:09:11;;;;;;;8.43;3.10;;;;;;;-144.19;72.82;76685.53;5024573;28;20051;-87
2021/12/05 14:11:50;;;;;;;7.80;2.90;;;;;;;-144.19;72.65;76693.38;4976296;28;20402;-86
2021/12/05 14:14:19;;;;;;;7.82;3.25;;;;;;;-144.19;72.46;76711.09;4976303;28;20046;-88
2021/12/05 14:16:49;;;;;;;9.57;3.13;;;;;;;-144.19;71.84;76693.38;4975560;28;20060;-86
2021/12/05 14:19:23;;;;;;;8.13;3.05;;;;;;;-144.19;72.79;76715.03;4976399;28;20144;-87
2021/12/05 14:21:52;;;;;;;8.70;3.15;;;;;;;-144.19;73.82;76709.13;4991189;28;20145;-87
2021/12/05 14:24:21;;;;;;;6.93;2.53;;;;;;;-144.19;73.06;76709.13;5008887;28;20132;-89
2021/12/05 14:26:51;;;;;;;9.25;2.60;;;;;;;-144.19;70.80;76709.13;5010804;28;20053;-87
2021/12/05 14:29:22;;;;;;;5.80;2.47;;;;;;;-144.19;71.89;76715.03;5005485;28;20117;-87
2021/12/05 14:31:57;;;;;;;8.88;3.47;;;;;;;-144.19;73.54;76726.84;5008169;28;20049;-88
2021/12/05 14:34:27;;;;;;;8.55;3.92;;;;;;;-144.19;73.67;76728.81;5006671;28;20046;-88
2021/12/05 14:37:00;;;;;;;7.25;2.92;;;;;;;-144.19;73.89;76742.59;5010111;28;20064;-88
2021/12/05 14:39:48;;;;;;;8.45;4.28;;;;;;;-144.19;74.67;76748.50;5022018;28;20063;-85
2021/12/05 14:42:18;;;;;;;12.15;5.72;;;;;;;-144.19;74.51;76752.44;5007884;28;20060;-88
2021/12/05 14:44:47;;;;;;;15.40;8.00;;;;;;;-144.19;74.51;76756.38;5006856;28;20046;-91
2021/12/05 14:47:20;;;;;;;18.23;9.05;;;;;;;-144.19;75.02;76748.50;5022709;28;20049;-86
2021/12/05 14:49:51;;;;;;;18.73;8.77;;;;;;;-144.19;75.00;76752.44;5006182;28;20500;-88
2021/12/05 14:52:27;;;;;;;15.50;7.43;;;;;;;-144.19;74.94;76750.47;5008166;28;20073;-89
2021/12/05 14:54:55;;;;;;;15.23;9.43;;;;;;;-144.19;74.80;76760.31;5025332;28;20056;-88
2021/12/05 14:57:26;;;;;;;16.30;7.70;;;;;;;-144.19;74.93;76760.31;5004598;28;20551;-87
2021/12/05 15:00:06;;;;;;;13.25;7.72;;;;;;;-144.19;74.94;76778.03;5024588;28;20095;-87
2021/12/05 15:02:34;;;;;;;11.68;6.63;;;;;;;-144.19;75.37;76772.13;5006051;28;20096;-88
2021/12/05 15:05:01;;;;;;;11.05;5.63;;;;;;;-144.19;75.49;76780.00;5020759;28;20054;-85
2021/12/05 15:07:27;;;;;;;9.60;5.07;;;;;;;-144.19;75.62;76785.91;5015596;28;20042;-87
2021/12/05 15:09:57;;;;;;;8.70;5.40;;;;;;;-144.19;76.08;76791.81;5007123;28;20038;-85
2021/12/05 15:12:29;;;;;;;9.52;4.55;;;;;;;-144.19;76.58;76799.69;5005383;28;20065;-87
2021/12/05 15:14:59;;;;;;;12.57;5.07;;;;;;;-144.19;77.09;76811.50;5019091;28;20049;-88
2021/12/05 15:17:32;;;;;;;8.73;5.35;;;;;;;-144.19;77.17;76825.28;5017416;28;20059;-87
2021/12/05 15:20:03;;;;;;;7.93;4.63;;;;;;;-144.19;77.31;76831.19;4994214;28;20049;-84
2021/12/05 15:22:40;;;;;;;8.43;5.30;;;;;;;-144.19;77.22;76837.09;4994609;28;20050;-87
2021/12/05 15:25:11;;;;;;;12.63;4.85;;;;;;;-144.19;77.83;76839.06;5027286;28;20053;-87
2021/12/05 15:27:38;;;;;;;8.32;5.10;;;;;;;-144.19;78.14;76846.94;5023926;28;20159;-87
2021/12/05 15:30:25;;;;;;;9.00;4.50;;;;;;;-144.19;78.69;76860.72;5002032;28;20045;-86
2021/12/05 15:33:01;;;;;;;11.32;5.07;;;;;;;-144.19;79.46;76874.50;4995834;28;20073;-88
2021/12/05 15:35:29;;;;;;;8.50;5.10;;;;;;;-144.19;80.25;76894.19;4998781;28;20053;-89
2021/12/05 15:38:00;;;;;;;8.15;4.45;;;;;;;-144.19;80.72;76900.09;5003654;28;20050;-86
2021/12/05 15:40:29;;;;;;;8.30;5.55;;;;;;;-144.19;81.12;76902.06;5002494;28;20046;-86
2021/12/05 15:43:01;;;;;;;7.32;4.63;;;;;;;-144.19;81.77;76917.81;4990118;28;20054;-88
2021/12/05 15:45:27;;;;;;;10.00;5.40;;;;;;;-144.19;81.88;76931.59;4991176;28;20496;-86
2021/12/05 15:47:53;;;;;;;8.83;5.43;;;;;;;-144.19;81.82;76945.38;4996322;28;20508;-89
2021/12/05 15:50:24;;;;;;;9.87;5.90;;;;;;;-144.19;82.32;76949.31;4990241;28;20050;-87
2021/12/05 15:53:12;;;;;;;9.80;7.55;;;;;;;-144.19;82.73;76957.19;4990082;28;20061;-87
2021/12/05 15:55:46;;;;;;;10.25;6.55;;;;;;;-144.19;82.92;76970.97;5002254;28;20054;-88
2021/12/05 15:58:25;;;;;;;11.90;6.63;;;;;;;-144.19;83.39;76972.94;4985333;28;20050;-87
2021/12/05 16:01:06;;;;;;;10.82;7.18;;;;;;;-144.19;83.41;76988.66;4999826;28;20087;-87
2021/12/05 16:03:42;;;;;;;9.55;6.60;;;;;;;-144.19;84.00;76990.63;4999515;28;20102;-88
2021/12/05 16:06:10;;;;;;;10.50;6.78;;;;;;;-144.19;84.10;77000.47;4993584;28;20508;-86
2021/12/05 16:08:37;;;;;;;11.30;6.10;;;;;;;-144.19;83.75;77000.47;4994498;28;20050;-86
2021/12/05 16:11:11;;;;;;;10.90;6.57;;;;;;;-144.19;83.53;77010.31;4996057;28;20054;-87
2021/12/05 16:13:42;;;;;;;8.50;6.15;;;;;;;-144.19;83.85;77016.22;4997118;28;20072;-85
2021/12/05 16:16:15;;;;;;;8.10;5.10;;;;;;;-144.19;83.90;77016.22;4995729;28;20060;-88
2021/12/05 16:18:44;;;;;;;8.70;4.95;;;;;;;-144.19;84.24;77016.22;4996712;28;20053;-85